Time;durP1;ratioP1;P1;durP2;ratioP2;P2;SDS_P1;SDS_P2;PMS_P1;PMS_P2;Temp;Humidity;BMP_temperature;BMP_pressure;BME280_temperature;BME280_humidity;BME280_pressure;Samples;Min_cycle;Max_cycle;Signal;HPM_P1;HPM_P2
2022/06/22 00:02:29;;;;;;;4.67;2.17;;;;;;;14.24;56.54;100464.47;1762831;79;98927;-66
2022/06/22 00:05:00;;;;;;;9.45;2.22;;;;;;;14.11;56.69;100427.09;1739782;80;25988;-67
2022/06/22 00:07:34;;;;;;;8.45;2.52;;;;;;;14.22;56.74;100463.22;1724015;80;26482;-66
2022/06/22 00:10:23;;;;;;;4.58;1.75;;;;;;;14.11;56.48;100435.19;1751686;79;98974;-66
2022/06/22 00:12:56;;;;;;;6.53;1.70;;;;;;;14.17;56.90;100457.72;1753072;79;25901;-65
2022/06/22 00:15:36;;;;;;;9.70;1.95;;;;;;;14.14;56.98;100453.86;1748225;79;99117;-66
2022/06/22 00:18:19;;;;;;;8.40;1.75;;;;;;;14.16;57.05;100455.98;1750219;79;26090;-65
2022/06/22 00:20:52;;;;;;;3.80;2.10;;;;;;;14.13;57.15;100457.04;1746809;79;99166;-66
2022/06/22 00:23:27;;;;;;;5.42;1.65;;;;;;;14.12;57.23;100457.13;1756682;79;27540;-66
2022/06/22 00:25:58;;;;;;;7.17;2.08;;;;;;;14.09;57.29;100465.41;1759226;79;98796;-65
2022/06/22 00:28:34;;;;;;;6.20;2.02;;;;;;;14.05;57.40;100463.86;1747400;79;25760;-66
2022/06/22 00:31:34;;;;;;;7.00;2.20;;;;;;;13.96;57.46;100462.10;1742048;79;26124;-66
2022/06/22 00:34:14;;;;;;;7.80;2.08;;;;;;;13.89;57.60;100461.22;1744063;79;98584;-67
2022/06/22 00:37:03;;;;;;;9.90;2.35;;;;;;;13.82;57.75;100459.84;1753012;79;28347;-67
2022/06/22 00:39:35;;;;;;;2.75;1.80;;;;;;;13.74;57.82;100460.30;1744074;79;99114;-67
2022/06/22 00:42:14;;;;;;;8.68;2.52;;;;;;;13.69;57.95;100469.13;1740299;80;25795;-67
2022/06/22 00:44:55;;;;;;;7.45;1.95;;;;;;;13.63;58.06;100466.80;1755310;79;99032;-67
2022/06/22 00:47:29;;;;;;;10.17;2.60;;;;;;;13.59;58.19;100466.11;1741973;79;25977;-68
2022/06/22 00:50:16;;;;;;;14.23;2.00;;;;;;;13.56;58.28;100469.47;1749642;79;99543;-66
2022/06/22 00:52:54;;;;;;;7.85;2.40;;;;;;;13.52;58.39;100470.60;1749566;79;25701;-67
2022/06/22 00:55:43;;;;;;;6.42;1.85;;;;;;;13.52;58.51;100478.20;1751454;79;25794;-67
2022/06/22 00:58:15;;;;;;;2.40;1.75;;;;;;;13.49;58.63;100480.20;1733636;80;98556;-67
2022/06/22 01:01:04;;;;;;;7.10;1.90;;;;;;;13.46;58.74;100478.55;1741682;80;26426;-67
2022/06/22 01:03:48;;;;;;;4.55;1.92;;;;;;;13.42;58.80;100474.30;1763040;79;98613;-67
2022/06/22 01:06:38;;;;;;;4.33;2.20;;;;;;;13.38;58.92;100467.36;1760826;78;25885;-67
2022/06/22 01:09:30;;;;;;;12.10;2.90;;;;;;;13.33;59.03;100469.45;1748409;79;99256;-65
2022/06/22 01:12:18;;;;;;;7.67;2.20;;;;;;;13.29;59.15;100472.80;1761423;79;25784;-66
2022/06/22 01:15:08;;;;;;;8.80;2.80;;;;;;;13.25;59.27;100471.72;1747824;79;99097;-67
2022/06/22 01:17:48;;;;;;;6.47;2.12;;;;;;;13.22;59.36;100473.23;1758914;79;27419;-65
2022/06/22 01:20:38;;;;;;;14.83;2.65;;;;;;;13.17;59.43;100481.57;1751558;79;99287;-66
2022/06/22 01:23:41;;;;;;;6.80;2.85;;;;;;;13.04;59.49;100476.45;1751535;79;26016;-66
2022/06/22 01:26:53;;;;;;;4.58;2.17;;;;;;;13.01;59.66;100487.39;1756469;79;98928;-66
2022/06/22 01:29:24;;;;;;;6.12;2.72;;;;;;;12.90;59.84;100493.88;1750459;79;26340;-66
2022/06/22 01:32:07;;;;;;;6.12;2.60;;;;;;;12.83;60.06;100485.75;1747889;79;99300;-65
2022/06/22 01:34:47;;;;;;;10.30;3.12;;;;;;;12.79;60.16;100489.09;1747909;79;25759;-67
2022/06/22 01:37:22;;;;;;;7.53;2.98;;;;;;;12.76;60.29;100491.08;1756018;79;25823;-67
2022/06/22 01:39:51;;;;;;;11.03;3.40;;;;;;;12.63;60.45;100480.13;1728003;80;99299;-66
2022/06/22 01:42:31;;;;;;;8.55;2.75;;;;;;;12.65;60.63;100487.16;1750482;79;25808;-66
2022/06/22 01:45:13;;;;;;;7.42;2.95;;;;;;;12.63;60.68;100490.40;1745777;79;98789;-65
2022/06/22 01:47:54;;;;;;;7.10;2.50;;;;;;;12.62;60.79;100491.35;1750412;79;25772;-66
2022/06/22 01:50:28;;;;;;;6.70;3.02;;;;;;;12.61;60.96;100490.09;1749971;79;99399;-65
2022/06/22 01:53:33;;;;;;;7.72;3.15;;;;;;;12.57;61.06;100482.66;1749843;79;26727;-66
2022/06/22 01:56:45;;;;;;;7.92;3.42;;;;;;;12.57;61.15;100487.17;1746376;79;99324;-65
2022/06/22 01:59:39;;;;;;;7.58;3.05;;;;;;;12.56;61.26;100478.72;1751298;79;27416;-67
2022/06/22 02:02:30;;;;;;;6.95;2.60;;;;;;;12.52;61.32;100482.52;1746354;79;99047;-66
2022/06/22 02:05:14;;;;;;;9.08;3.27;;;;;;;12.49;61.33;100480.00;1762674;78;25863;-67
2022/06/22 02:08:04;;;;;;;7.30;2.72;;;;;;;12.44;61.53;100481.59;1758360;79;26142;-67
2022/06/22 02:10:53;;;;;;;6.85;2.70;;;;;;;12.43;61.63;100479.85;1747360;79;98739;-65
2022/06/22 02:13:36;;;;;;;8.60;3.02;;;;;;;12.44;61.67;100485.62;1751050;79;27459;-65
2022/06/22 02:16:28;;;;;;;9.73;2.85;;;;;;;12.46;61.72;100489.09;1753453;79;99172;-65
2022/06/22 02:19:03;;;;;;;6.33;3.30;;;;;;;12.45;61.77;100486.48;1753257;79;25823;-65
2022/06/22 02:21:50;;;;;;;7.97;2.80;;;;;;;12.44;61.87;100485.62;1728085;80;99020;-65
2022/06/22 02:24:21;;;;;;;8.63;2.70;;;;;;;12.43;61.94;100480.33;1733708;81;25728;-65
2022/06/22 02:27:14;;;;;;;;;;;;;;;12.42;61.96;100485.31;1735066;81;98969;-65
2022/06/22 02:29:46;;;;;;;6.03;2.77;;;;;;;12.41;62.05;100480.41;1732531;81;26304;-65
2022/06/22 02:32:23;;;;;;;10.68;3.05;;;;;;;12.39;62.04;100470.22;1736256;80;99410;-64
2022/06/22 02:34:53;;;;;;;5.87;2.65;;;;;;;12.41;62.08;100473.69;1742063;79;28134;-68
2022/06/22 02:37:23;;;;;;;5.25;3.12;;;;;;;12.43;62.17;100473.61;1741271;79;25689;-66
2022/06/22 02:39:54;;;;;;;8.93;3.37;;;;;;;12.42;62.21;100474.08;1741178;79;98815;-66
2022/06/22 02:45:12;;;;;;;10.30;3.83;;;;;;;12.36;62.39;100477.09;1727523;81;99074;-65
2022/06/22 02:48:00;;;;;;;7.65;3.77;;;;;;;12.35;62.48;100476.23;1733553;81;28246;-65
2022/06/22 02:50:47;;;;;;;10.25;3.95;;;;;;;12.36;62.49;100475.75;1733288;80;99294;-67
2022/06/22 02:53:25;;;;;;;9.28;3.92;;;;;;;12.36;62.62;100474.41;1735283;81;28161;-68
2022/06/22 02:55:53;;;;;;;7.17;3.92;;;;;;;12.35;62.56;100483.42;1728558;81;25828;-66
2022/06/22 02:58:32;;;;;;;9.20;3.80;;;;;;;12.34;62.75;100483.90;1735983;80;98659;-66
2022/06/22 03:01:06;;;;;;;10.13;4.37;;;;;;;12.38;62.82;100483.26;1729089;80;53678;-67
2022/06/22 03:03:34;;;;;;;10.48;4.10;;;;;;;12.43;62.90;100481.67;1735593;79;99225;-67
2022/06/22 03:06:09;;;;;;;13.80;4.37;;;;;;;12.47;62.97;100472.48;1724466;81;27463;-66
2022/06/22 03:08:36;;;;;;;10.15;3.72;;;;;;;12.51;63.06;100470.03;1719644;81;99065;-67
2022/06/22 03:11:06;;;;;;;9.75;4.25;;;;;;;12.56;63.12;100471.99;1726141;81;25888;-66
2022/06/22 03:13:43;;;;;;;9.43;4.05;;;;;;;12.59;63.16;100474.04;1725717;81;26007;-66
2022/06/22 03:16:18;;;;;;;13.90;4.42;;;;;;;12.63;63.21;100471.58;1714556;81;98957;-66
2022/06/22 03:18:44;;;;;;;9.03;4.25;;;;;;;12.66;63.25;100471.41;1716591;81;27413;-67
2022/06/22 03:21:14;;;;;;;13.13;4.65;;;;;;;12.65;63.31;100473.70;1715933;81;99100;-66
2022/06/22 03:23:48;;;;;;;12.60;4.53;;;;;;;12.70;63.38;100468.55;1718110;80;26455;-68
2022/06/22 03:26:37;;;;;;;14.50;4.65;;;;;;;12.70;63.39;100477.97;1701749;82;99526;-67
2022/06/22 03:29:26;;;;;;;15.08;5.60;;;;;;;12.71;63.43;100477.02;1702466;82;25835;-66
2022/06/22 03:31:57;;;;;;;14.28;5.75;;;;;;;12.71;63.47;100474.33;1705249;82;27461;-66
2022/06/22 03:34:30;;;;;;;;;;;;;;;12.72;63.54;100478.27;1705959;82;99048;-66
2022/06/22 03:37:10;;;;;;;12.28;5.92;;;;;;;12.73;63.70;100472.42;1722588;81;25938;-66
2022/06/22 03:39:42;;;;;;;12.73;5.45;;;;;;;12.73;63.67;100467.04;1725493;81;99341;-65
2022/06/22 03:42:28;;;;;;;17.32;7.00;;;;;;;12.75;63.75;100475.89;1706013;82;26578;-67
2022/06/22 03:45:03;;;;;;;14.05;8.83;;;;;;;12.78;63.84;100469.87;1701844;82;99257;-66
2022/06/22 03:47:46;;;;;;;17.82;7.70;;;;;;;12.81;63.83;100468.35;1705023;82;26017;-66
2022/06/22 03:50:26;;;;;;;15.72;7.62;;;;;;;12.84;63.83;100472.70;1698640;82;99436;-65
2022/06/22 03:53:08;;;;;;;22.77;7.97;;;;;;;12.88;63.88;100467.54;1702073;82;26194;-66
2022/06/22 03:55:40;;;;;;;17.37;7.22;;;;;;;12.92;63.89;100471.79;1704578;82;25958;-67
2022/06/22 03:58:10;;;;;;;;;;;;;;;12.97;63.94;100466.55;1706321;82;99336;-66
2022/06/22 04:00:39;;;;;;;11.12;5.87;;;;;;;13.00;63.97;100468.20;1701351;82;25867;-67
2022/06/22 04:03:08;;;;;;;10.88;5.97;;;;;;;13.04;63.97;100466.17;1709232;82;98994;-66
2022/06/22 04:05:40;;;;;;;9.85;5.55;;;;;;;13.09;63.96;100463.61;1743274;80;26661;-67
2022/06/22 04:08:06;;;;;;;11.85;6.05;;;;;;;13.15;64.00;100461.05;1732715;80;99042;-65
2022/06/22 04:10:46;;;;;;;14.78;6.08;;;;;;;13.23;63.99;100469.11;1735410;80;28536;-67
2022/06/22 04:13:21;;;;;;;8.33;3.92;;;;;;;13.26;63.99;100468.94;1736291;79;25961;-66
2022/06/22 04:15:58;;;;;;;12.37;4.85;;;;;;;13.35;64.03;100462.63;1733824;79;97813;-67
2022/06/22 04:18:31;;;;;;;15.98;5.20;;;;;;;13.43;63.99;100461.71;1730687;80;26960;-67
2022/06/22 04:21:08;;;;;;;11.53;4.75;;;;;;;13.50;63.98;100459.05;1741126;79;99431;-67
2022/06/22 04:23:42;;;;;;;7.85;3.58;;;;;;;13.58;63.97;100463.52;1738776;80;27695;-67
2022/06/22 04:26:32;;;;;;;13.90;4.03;;;;;;;13.66;63.96;100472.01;1743386;80;99077;-65
2022/06/22 04:29:09;;;;;;;9.30;3.75;;;;;;;13.75;63.96;100466.08;1716345;81;25817;-66
2022/06/22 04:31:41;;;;;;;9.68;4.40;;;;;;;13.83;63.91;100465.62;1742771;80;26529;-67
2022/06/22 04:34:12;;;;;;;19.57;4.78;;;;;;;13.90;63.86;100458.91;1733321;80;98977;-65
2022/06/22 04:36:41;;;;;;;;;;;;;;;13.96;63.88;100462.10;1746750;79;27840;-66
2022/06/22 04:39:17;;;;;;;11.50;3.85;;;;;;;14.04;63.87;100459.42;1740714;80;84656;-68
2022/06/22 04:41:45;;;;;;;9.58;3.92;;;;;;;14.10;63.83;100461.75;1736199;79;25787;-66
2022/06/22 04:44:26;;;;;;;10.55;4.08;;;;;;;14.17;63.79;100456.38;1712393;81;98933;-65
2022/06/22 04:46:57;;;;;;;11.68;4.20;;;;;;;14.23;63.77;100459.56;1736768;81;25808;-66
2022/06/22 04:49:31;;;;;;;6.08;3.70;;;;;;;14.30;63.76;100464.09;1707939;80;28134;-66
2022/06/22 04:52:03;;;;;;;10.88;4.10;;;;;;;14.38;63.76;100464.48;1737902;81;99117;-68
2022/06/22 04:54:36;;;;;;;10.05;5.28;;;;;;;14.48;63.81;100471.56;1737545;80;26304;-66
2022/06/22 04:57:08;;;;;;;12.25;4.60;;;;;;;14.57;63.77;100477.25;1743622;80;99415;-66
2022/06/22 04:59:34;;;;;;;13.18;4.40;;;;;;;14.64;63.78;100479.08;1735153;80;26330;-66
2022/06/22 05:02:03;;;;;;;14.93;4.33;;;;;;;14.72;63.80;100477.25;1742490;79;27593;-67
2022/06/22 05:04:44;;;;;;;18.73;4.03;;;;;;;14.80;63.78;100483.03;1715572;81;99179;-67
2022/06/22 05:07:45;;;;;;;11.95;4.17;;;;;;;14.86;63.79;100482.16;1726489;81;25657;-66
2022/06/22 05:10:56;;;;;;;10.65;5.08;;;;;;;14.94;63.76;100485.23;1701511;82;98990;-66
2022/06/22 05:13:45;;;;;;;10.08;3.90;;;;;;;15.02;63.70;100487.92;1701581;82;25895;-68
2022/06/22 05:16:20;;;;;;;12.73;3.47;;;;;;;15.07;63.67;100483.09;1703506;82;99014;-67
2022/06/22 05:18:49;;;;;;;14.47;3.15;;;;;;;15.15;63.63;100482.13;1699629;82;25812;-66
2022/06/22 05:21:35;;;;;;;7.47;2.98;;;;;;;15.22;63.55;100477.57;1697133;82;98927;-66
2022/06/22 05:24:10;;;;;;;13.18;2.87;;;;;;;15.29;63.46;100482.57;1703853;82;26081;-67
2022/06/22 05:26:40;;;;;;;9.68;2.70;;;;;;;15.36;63.39;100492.88;1700067;81;98862;-66
2022/06/22 05:29:12;;;;;;;8.73;2.80;;;;;;;15.46;63.39;100490.44;1708730;82;27405;-66
2022/06/22 05:31:44;;;;;;;9.03;2.87;;;;;;;15.56;63.27;100490.20;1699174;82;25884;-67
2022/06/22 05:34:17;;;;;;;14.30;2.75;;;;;;;15.62;63.16;100487.09;1698718;82;98779;-66
2022/06/22 05:36:48;;;;;;;11.95;2.58;;;;;;;15.69;63.12;100489.77;1701802;82;26669;-66
2022/06/22 05:39:16;;;;;;;8.43;2.50;;;;;;;15.77;63.04;100494.18;1703292;82;98928;-67
2022/06/22 05:41:46;;;;;;;8.50;2.52;;;;;;;15.85;63.01;100493.18;1700681;82;27416;-67
2022/06/22 05:44:17;;;;;;;9.95;2.40;;;;;;;15.93;62.90;100493.14;1721058;81;98834;-67
2022/06/22 05:46:53;;;;;;;10.65;2.55;;;;;;;16.00;62.82;100497.16;1705135;81;25768;-66
2022/06/22 05:49:25;;;;;;;9.55;2.90;;;;;;;16.06;62.71;100489.98;1724584;81;26748;-67
2022/06/22 05:52:02;;;;;;;11.10;3.02;;;;;;;16.12;62.65;100489.56;1701375;82;98738;-66
2022/06/22 05:54:50;;;;;;;9.53;2.58;;;;;;;16.17;62.54;100488.28;1705577;82;28499;-67
2022/06/22 05:57:37;;;;;;;9.90;2.70;;;;;;;16.24;62.48;100486.88;1699591;82;98726;-67
2022/06/22 06:00:24;;;;;;;9.28;2.27;;;;;;;16.32;62.39;100483.64;1709683;82;25792;-66
2022/06/22 06:03:08;;;;;;;9.63;3.25;;;;;;;16.40;62.25;100484.46;1703652;82;98794;-66
2022/06/22 06:05:42;;;;;;;17.92;3.20;;;;;;;16.44;62.14;100490.03;1725862;80;26062;-66
2022/06/22 06:08:14;;;;;;;4.87;2.12;;;;;;;16.49;62.00;100493.28;1729867;81;99078;-65
2022/06/22 06:10:46;;;;;;;7.85;2.45;;;;;;;16.56;61.90;100486.47;1714443;81;26325;-66
2022/06/22 06:13:40;;;;;;;9.00;2.35;;;;;;;16.61;61.65;100487.49;1732126;81;25823;-68
2022/06/22 06:16:12;;;;;;;11.53;2.45;;;;;;;16.68;61.51;100492.39;1733545;81;99508;-67
2022/06/22 06:18:42;;;;;;;5.90;2.77;;;;;;;16.77;61.33;100499.00;1732936;81;26423;-67
2022/06/22 06:21:15;;;;;;;5.87;2.12;;;;;;;16.83;61.13;100490.44;1734106;81;98708;-67
2022/06/22 06:23:52;;;;;;;5.15;2.42;;;;;;;16.88;60.99;100496.39;1743184;81;25752;-68
2022/06/22 06:29:46;;;;;;;9.63;2.12;;;;;;;17.00;60.61;100500.05;1730739;81;28166;-67
2022/06/22 06:32:31;;;;;;;17.12;3.15;;;;;;;17.08;60.48;100492.23;1738385;81;98856;-69
2022/06/22 06:35:32;;;;;;;5.17;2.10;;;;;;;17.15;60.31;100495.74;1731220;81;27549;-67
2022/06/22 06:38:28;;;;;;;4.67;1.73;;;;;;;17.23;60.17;100495.19;1732855;81;25796;-68
2022/06/22 06:41:11;;;;;;;7.15;2.83;;;;;;;17.32;60.02;100482.80;1732278;81;26496;-68
2022/06/22 06:44:08;;;;;;;6.72;2.10;;;;;;;17.42;59.86;100483.85;1736013;81;26168;-67
2022/06/22 06:46:44;;;;;;;7.45;1.92;;;;;;;17.47;59.63;100481.18;1741258;81;98740;-68
2022/06/22 06:49:31;;;;;;;5.28;1.42;;;;;;;17.54;59.45;100488.36;1732047;81;27431;-68
2022/06/22 06:52:26;;;;;;;8.03;2.30;;;;;;;17.61;59.20;100484.21;1735943;81;98786;-68
2022/06/22 06:55:03;;;;;;;3.25;1.80;;;;;;;17.68;59.01;100487.36;1726343;81;25827;-68
2022/06/22 06:57:32;;;;;;;6.62;1.95;;;;;;;17.75;58.82;100486.78;1732511;81;98669;-68
2022/06/22 07:00:03;;;;;;;3.62;1.67;;;;;;;17.82;58.62;100495.31;1736406;81;25767;-68
2022/06/22 07:02:36;;;;;;;10.90;2.17;;;;;;;17.90;58.43;100492.89;1732750;81;27963;-67
2022/06/22 07:05:10;;;;;;;9.35;2.00;;;;;;;18.01;58.25;100491.58;1732079;81;98604;-67
2022/06/22 07:07:54;;;;;;;7.30;2.55;;;;;;;18.12;58.02;100495.69;1738019;80;25842;-67
2022/06/22 07:10:44;;;;;;;7.87;1.67;;;;;;;18.18;57.78;100496.20;1743920;81;98820;-66
2022/06/22 07:13:33;;;;;;;5.05;1.92;;;;;;;18.29;57.45;100503.84;1737781;81;25747;-67
2022/06/22 07:16:05;;;;;;;6.20;1.80;;;;;;;18.37;56.90;100499.17;1733266;80;98725;-66
2022/06/22 07:18:39;;;;;;;9.60;1.82;;;;;;;18.41;56.66;100503.38;1735680;80;25763;-67
2022/06/22 07:21:12;;;;;;;3.47;1.20;;;;;;;18.48;56.12;100508.20;1737766;80;98810;-67
2022/06/22 07:23:46;;;;;;;3.20;1.60;;;;;;;18.56;55.14;100504.89;1711154;81;26169;-67
2022/06/22 07:26:17;;;;;;;4.53;1.20;;;;;;;18.62;54.30;100505.80;1703846;82;25728;-67
2022/06/22 07:28:51;;;;;;;4.00;1.30;;;;;;;18.67;53.77;100502.23;1737199;80;98638;-67
2022/06/22 07:31:29;;;;;;;4.53;1.67;;;;;;;18.70;53.38;100506.55;1736336;81;25790;-67
2022/06/22 07:34:06;;;;;;;3.80;1.07;;;;;;;18.75;53.18;100508.41;1732393;81;98741;-67
2022/06/22 07:36:37;;;;;;;6.12;1.25;;;;;;;18.80;52.97;100507.05;1730857;81;26692;-68
2022/06/22 07:39:23;;;;;;;3.65;1.40;;;;;;;18.84;52.61;100510.88;1730997;80;98873;-68
2022/06/22 07:41:50;;;;;;;8.73;1.20;;;;;;;18.87;52.37;100512.86;1735148;81;27525;-68
2022/06/22 07:44:26;;;;;;;4.70;1.20;;;;;;;18.91;52.11;100512.98;1732877;79;25798;-67
2022/06/22 07:47:37;;;;;;;4.60;0.90;;;;;;;18.96;51.96;100516.20;1734108;80;98725;-66
2022/06/22 07:50:23;;;;;;;4.80;1.50;;;;;;;19.03;51.73;100515.21;1735050;81;26662;-68
2022/06/22 07:52:54;;;;;;;9.35;2.52;;;;;;;19.12;51.54;100511.75;1732137;81;98695;-67
2022/06/22 07:55:33;;;;;;;;;;;;;;;19.23;51.48;100506.80;1741413;80;28215;-67
2022/06/22 07:58:31;;;;;;;8.90;2.20;;;;;;;19.32;51.35;100499.26;1738709;81;84127;-66
2022/06/22 08:01:05;;;;;;;8.35;1.32;;;;;;;19.39;51.33;100515.44;1738915;81;25827;-67
2022/06/22 08:03:37;;;;;;;4.37;1.30;;;;;;;19.41;51.28;100507.52;1743792;80;99012;-67
2022/06/22 08:06:08;;;;;;;6.08;1.47;;;;;;;19.43;51.23;100513.70;1712003;81;26226;-67
2022/06/22 08:08:43;;;;;;;;;;;;;;;19.50;50.97;100509.11;1734981;80;27804;-67
2022/06/22 08:11:27;;;;;;;7.92;1.67;;;;;;;19.58;50.73;100508.88;1730657;81;83827;-67
2022/06/22 08:14:02;;;;;;;5.37;1.30;;;;;;;19.61;50.75;100509.98;1737526;81;25744;-68
2022/06/22 08:16:41;;;;;;;8.73;1.87;;;;;;;19.67;50.59;100505.39;1738540;81;98616;-67
2022/06/22 08:19:08;;;;;;;9.80;2.37;;;;;;;19.63;50.18;100493.05;1739091;81;25719;-68
2022/06/22 08:21:42;;;;;;;7.03;2.10;;;;;;;19.63;50.18;100493.05;1732764;81;98695;-67
2022/06/22 08:24:11;;;;;;;13.15;2.95;;;;;;;19.83;50.18;100517.22;1733182;81;25782;-68
2022/06/22 08:26:37;;;;;;;11.90;2.75;;;;;;;19.88;50.17;100508.17;1739188;81;25738;-67
2022/06/22 08:29:05;;;;;;;6.30;2.58;;;;;;;19.79;50.26;100485.83;1739095;81;98976;-68
2022/06/22 08:31:40;;;;;;;7.40;2.20;;;;;;;19.79;50.26;100485.83;1740153;81;25740;-68
2022/06/22 08:34:11;;;;;;;38.20;3.50;;;;;;;19.93;50.12;100500.48;1729246;81;98784;-68
2022/06/22 08:36:47;;;;;;;6.03;2.00;;;;;;;19.90;49.80;100477.63;1732864;81;26272;-67
2022/06/22 08:39:38;;;;;;;8.83;1.82;;;;;;;19.90;49.80;100477.63;1739181;81;98795;-67
2022/06/22 08:42:43;;;;;;;9.38;2.42;;;;;;;20.10;49.62;100488.17;1741881;79;26080;-67
2022/06/22 08:45:21;;;;;;;10.63;1.40;;;;;;;20.09;49.52;100484.58;1739343;81;98904;-66
2022/06/22 08:48:31;;;;;;;4.95;1.40;;;;;;;20.16;49.44;100486.28;1731216;79;27400;-67
2022/06/22 08:51:38;;;;;;;5.03;1.50;;;;;;;20.32;49.23;100495.35;1733903;81;98887;-65
2022/06/22 08:54:43;;;;;;;4.60;2.27;;;;;;;20.35;48.81;100482.34;1734919;81;25745;-66
2022/06/22 08:57:26;;;;;;;5.08;1.35;;;;;;;20.35;48.74;100485.06;1738753;81;98870;-66
2022/06/22 09:00:21;;;;;;;4.10;1.57;;;;;;;20.35;48.74;100485.06;1666673;81;25829;-66
2022/06/22 09:03:16;;;;;;;5.03;1.47;;;;;;;20.40;48.46;100493.73;1726584;81;27460;-67
2022/06/22 09:06:10;;;;;;;5.50;1.77;;;;;;;20.44;48.42;100489.38;1734125;81;25761;-66
2022/06/22 09:09:02;;;;;;;5.65;1.52;;;;;;;20.52;48.48;100480.91;1701555;81;26641;-67
2022/06/22 09:11:42;;;;;;;3.67;1.40;;;;;;;20.52;48.48;100480.91;1731960;81;98824;-68
2022/06/22 09:14:49;;;;;;;12.25;1.75;;;;;;;20.54;48.08;100487.58;1729533;81;25761;-67
2022/06/22 09:17:30;;;;;;;6.15;1.50;;;;;;;20.53;48.01;100477.19;1729432;81;98990;-67
2022/06/22 09:20:24;;;;;;;8.40;1.60;;;;;;;20.56;47.89;100476.91;1745087;81;25913;-67
2022/06/22 09:23:14;;;;;;;5.62;1.65;;;;;;;20.57;47.98;100467.75;1706082;82;98668;-68
2022/06/22 09:25:57;;;;;;;4.58;2.35;;;;;;;20.64;47.95;100477.61;1705441;82;26505;-67
2022/06/22 09:28:34;;;;;;;7.78;1.70;;;;;;;20.77;47.36;100476.02;1728708;81;98648;-68
2022/06/22 09:31:34;;;;;;;3.90;1.80;;;;;;;20.78;47.59;100467.72;1680483;81;29567;-66
2022/06/22 09:34:42;;;;;;;8.93;2.05;;;;;;;20.85;47.70;100470.72;1721304;81;98862;-66
2022/06/22 09:37:38;;;;;;;8.45;1.60;;;;;;;20.98;47.36;100468.13;1724783;81;25697;-66
2022/06/22 09:40:36;;;;;;;9.70;6.87;;;;;;;20.99;47.25;100463.05;1739857;80;98756;-66
2022/06/22 09:43:26;;;;;;;3.05;1.22;;;;;;;21.04;47.25;100458.05;1732655;81;25837;-67
2022/06/22 09:46:24;;;;;;;4.53;1.90;;;;;;;21.10;47.04;100459.85;1737505;80;98940;-67
2022/06/22 09:49:01;;;;;;;3.90;1.40;;;;;;;21.06;47.14;100465.58;1706077;82;25802;-68
2022/06/22 09:51:56;;;;;;;5.35;2.02;;;;;;;21.15;46.61;100454.85;1719732;81;98999;-65
2022/06/22 09:57:44;;;;;;;6.25;1.80;;;;;;;21.19;46.77;100453.57;1702248;81;99030;-66
2022/06/22 10:00:18;;;;;;;6.15;1.27;;;;;;;21.25;46.67;100448.45;1719367;81;27474;-67
2022/06/22 10:02:58;;;;;;;2.40;1.20;;;;;;;21.27;46.72;100449.69;1733293;81;25792;-68
2022/06/22 10:05:37;;;;;;;4.90;1.27;;;;;;;21.32;46.60;100437.35;1725405;81;98782;-67
2022/06/22 10:08:21;;;;;;;5.20;1.32;;;;;;;21.39;46.57;100433.06;1715524;81;26193;-67
2022/06/22 10:11:05;;;;;;;5.53;1.47;;;;;;;21.52;46.57;100451.88;1712346;81;98829;-67
2022/06/22 10:14:24;;;;;;;3.33;0.90;;;;;;;21.65;46.54;100443.43;1712134;81;29456;-67
2022/06/22 10:17:02;;;;;;;3.30;1.52;;;;;;;21.69;46.10;100445.73;1646947;85;98867;-66
2022/06/22 10:20:01;;;;;;;3.67;1.10;;;;;;;21.76;46.28;100433.75;1643072;85;26025;-66
2022/06/22 10:22:38;;;;;;;3.42;1.02;;;;;;;21.81;46.32;100430.09;1716213;81;98647;-68
2022/06/22 10:25:24;;;;;;;7.80;1.80;;;;;;;21.97;46.22;100424.05;1700640;80;26739;-67
2022/06/22 10:28:02;;;;;;;2.37;1.00;;;;;;;22.13;46.15;100430.31;1681485;80;99358;-68
2022/06/22 10:31:06;;;;;;;10.72;1.60;;;;;;;22.23;45.93;100433.89;1739661;80;25882;-67
2022/06/22 10:33:56;;;;;;;7.67;1.30;;;;;;;22.31;45.89;100423.95;1706277;82;99117;-66
2022/06/22 10:36:57;;;;;;;6.42;1.47;;;;;;;22.44;45.69;100422.77;1737790;80;26148;-67
2022/06/22 10:39:41;;;;;;;9.40;1.90;;;;;;;22.52;45.46;100425.12;1737286;80;98901;-66
2022/06/22 10:45:41;;;;;;;4.20;1.20;;;;;;;22.69;44.78;100423.48;1738489;80;25792;-67
2022/06/22 10:48:24;;;;;;;6.15;1.62;;;;;;;22.69;44.47;100426.22;1705343;82;25866;-67
2022/06/22 10:51:01;;;;;;;7.08;1.40;;;;;;;22.70;44.37;100419.74;1737952;80;28146;-67
2022/06/22 10:53:53;;;;;;;2.60;1.30;;;;;;;22.73;43.56;100425.41;1711176;80;98835;-67
2022/06/22 10:56:48;;;;;;;4.83;1.50;;;;;;;22.75;43.73;100432.45;1737331;80;27587;-67
2022/06/22 10:59:39;;;;;;;8.50;1.20;;;;;;;22.87;43.23;100428.55;1707904;82;99127;-66
2022/06/22 11:02:45;;;;;;;6.17;1.12;;;;;;;23.02;43.31;100433.02;1744785;80;25778;-66
2022/06/22 11:05:36;;;;;;;8.18;1.40;;;;;;;23.15;43.28;100426.69;1736821;80;98947;-67
2022/06/22 11:08:26;;;;;;;3.08;1.02;;;;;;;23.31;43.28;100429.61;1737822;79;25725;-67
2022/06/22 11:11:20;;;;;;;2.45;1.10;;;;;;;23.48;42.86;100430.62;1738285;80;99058;-65
2022/06/22 11:14:09;;;;;;;3.70;0.70;;;;;;;23.51;41.49;100430.30;1726075;79;25921;-66
2022/06/22 11:17:07;;;;;;;4.62;1.47;;;;;;;23.58;41.92;100427.84;1738139;80;98682;-66
2022/06/22 11:20:07;;;;;;;3.27;1.02;;;;;;;23.81;42.08;100429.61;1737103;80;26729;-67
2022/06/22 11:22:42;;;;;;;4.62;1.00;;;;;;;24.14;40.99;100415.69;1733032;79;98623;-68
2022/06/22 11:31:53;;;;;;;4.25;0.88;;;;;;;24.10;39.97;100425.25;1738558;80;25877;-66
2022/06/22 11:34:53;;;;;;;4.55;0.93;;;;;;;24.11;39.73;100433.30;1734151;81;98934;-65
2022/06/22 11:37:31;;;;;;;4.28;0.75;;;;;;;24.01;39.60;100432.53;1733575;81;26019;-67
2022/06/22 11:40:08;;;;;;;4.10;1.32;;;;;;;23.86;39.87;100424.02;1732098;81;98852;-67
2022/06/22 11:42:45;;;;;;;7.15;1.10;;;;;;;23.93;39.85;100426.98;1713857;81;26357;-67
2022/06/22 11:45:58;;;;;;;8.63;1.57;;;;;;;23.94;39.75;100430.08;1735607;81;25795;-66
2022/06/22 11:49:05;;;;;;;6.28;1.15;;;;;;;23.92;39.55;100425.27;1736123;81;98581;-67
2022/06/22 11:51:45;;;;;;;4.50;1.40;;;;;;;23.95;39.74;100419.47;1737967;81;25830;-66
2022/06/22 11:54:42;;;;;;;4.73;1.40;;;;;;;24.01;39.19;100420.72;1735037;81;98758;-66
2022/06/22 11:57:31;;;;;;;7.50;1.20;;;;;;;24.17;39.20;100421.71;1733006;81;25981;-66
2022/06/22 12:00:21;;;;;;;3.92;1.40;;;;;;;24.24;39.02;100425.53;1736274;81;98686;-67
2022/06/22 12:03:08;;;;;;;10.90;1.53;;;;;;;24.39;38.99;100425.84;1731695;81;26077;-67
2022/06/22 12:06:00;;;;;;;12.07;1.20;;;;;;;24.46;38.23;100421.95;1742640;79;98878;-67
2022/06/22 12:08:50;;;;;;;4.35;1.10;;;;;;;24.50;38.26;100430.20;1724803;81;28235;-67
2022/06/22 12:11:39;;;;;;;5.37;1.82;;;;;;;24.52;37.95;100437.75;1693155;83;98754;-68
2022/06/22 12:17:52;;;;;;;4.17;1.45;;;;;;;24.96;38.23;100426.17;1721161;81;98618;-66
2022/06/22 12:20:39;;;;;;;6.03;1.40;;;;;;;25.30;38.15;100424.80;1723550;81;25753;-66
2022/06/22 12:23:34;;;;;;;9.50;1.37;;;;;;;25.30;37.76;100430.28;1702445;82;98833;-66
2022/06/22 12:26:24;;;;;;;22.22;2.37;;;;;;;25.34;37.39;100422.58;1732687;80;25763;-67
2022/06/22 12:29:25;;;;;;;4.97;1.15;;;;;;;25.41;37.63;100419.51;1697247;83;98860;-66
2022/06/22 12:31:59;;;;;;;4.10;1.50;;;;;;;25.49;36.97;100424.50;1725747;81;35255;-67
2022/06/22 12:34:33;;;;;;;4.87;1.17;;;;;;;25.52;37.45;100419.20;1725384;81;98979;-66
2022/06/22 12:37:08;;;;;;;6.25;1.32;;;;;;;25.56;37.11;100420.06;1725306;80;28259;-66
2022/06/22 12:39:45;;;;;;;5.42;1.20;;;;;;;25.40;36.86;100431.00;1723822;81;25904;-66
2022/06/22 12:42:31;;;;;;;8.05;1.10;;;;;;;25.34;36.70;100428.06;1729502;80;98680;-66
2022/06/22 12:45:05;;;;;;;2.83;1.25;;;;;;;25.44;36.65;100424.66;1722396;80;27065;-66
2022/06/22 12:47:56;;;;;;;5.80;1.47;;;;;;;25.78;36.73;100414.98;1700911;82;98821;-66
2022/06/22 12:50:46;;;;;;;6.85;1.30;;;;;;;26.01;35.75;100412.39;1702016;81;28244;-66
2022/06/22 12:53:18;;;;;;;6.85;1.15;;;;;;;25.53;36.01;100420.91;1695559;82;98831;-65
2022/06/22 12:55:49;;;;;;;2.65;1.07;;;;;;;25.52;36.22;100417.31;1700627;81;26545;-65